• Join FlightAware (Why Join?)
  • Login
  • US Flag 
03:27PM EST


 

Airport Tracker/Info


-or-


 

Live Flight TrackerFlight Track Log ✈ EJA839 ✈ 23-Apr-2013 ✈ KACK - KPVD

Flight Track Log - Related Links

Times and Time Zones

All times are in EDT time to prevent confusion due to time zone crossing. See the EJA839 flight status page for this flight to view local times or setup timezone preferences in your user account.

Time Position Orientation Groundspeed Altitude Reporting Facility
EDT Latitude Longitude Course Direction KTS MPH feet Rate Location/Type
07:07PM 41.3739 -70.5624 288° West  Level FlightAware Approximate
07:07PM 41.4531 -70.5539 292° West 272 313 3,900  Level Boston Center
07:08PM 41.4077 -70.6610 298° West  Level FlightAware Approximate
07:08PM 41.4794 -70.6419 292° West 274 315 4,000  Level Boston Center
07:09PM 41.4453 -70.7576 297° West  Level FlightAware Approximate
07:09PM 41.5122 -70.7350 295° West 280 322 4,000  Level Boston Center
07:10PM 41.4825 -70.8544 297° West  Level FlightAware Approximate
07:10PM 41.5408 -70.8369 291° West 285 328 4,000  Level Boston Center
07:11PM 41.5240 -70.9480 304° West  Level FlightAware Approximate
07:11PM 41.5692 -70.9278 293° West 285 328 4,000  Level Boston Center
07:12PM 41.5639 -71.0430 298° West  Level FlightAware Approximate
07:12PM 41.6017 -71.0269 294° West 253 291 4,000  Level Boston Center
07:13PM 41.6236 -71.1128 289° West 247 284 4,000  Level Boston Center
07:14PM 41.6494 -71.1900 294° West 244 281 4,000  Level Boston Center
07:15PM 41.6608 -71.2758 280° West 254 292 4,000 -240 Level Boston Center
07:16PM 41.6156 -71.3489 230° Southwest 247 284 3,600 -540 Descending Boston Center
07:17PM 41.5703 -71.4078 224° Southwest 224 258 3,000 -300 Descending Boston Center
07:18PM 41.5272 -71.4614 223° Southwest 212 244 3,000  Level Boston Center
07:19PM 41.4900 -71.5061 222° Southwest 179 206 3,000 -240 Level Boston Center
07:20PM 41.4800 -71.5617 257° West 170 196 2,500 -480 Descending Boston Center
07:22PM 41.5114 -71.5836 332° Northwest 112 129 2,000 -480 Descending Boston Center